Albany, GA (31708)

9:05 PM EST on November 26, 2014 (GMT -0500)
Southwest Georgia Regional | Change Station
CLOSE
Current Station
Airport
Location: Albany,
Elevation: 194 ft
Nearby Weather Stations

Elev 194 ft 31.54 °N, 84.19 °W | Updated 12 minutes ago

Clear
Clear
44 °F
Feels Like 44 °F
N
0
Wind Variable Wind from North

Today
High -- | Low -- °F
--% Chance of Precip.
Yesterday
High -- | Low -- °F
Precip. -- in
7:14 AM 5:33 PM
Waxing Crescent, 24% visible
Pressure 30.19 in
Visibility 10.0 miles
Clouds Clear
Dew Point 38 °F
Humidity 79%
Rainfall 0.23 in
Snow Depth Not available.
UV 0 out of 12
Pollen .30 out of 12
Air Quality Not available.
Flu Activity Not available.
METAR KABY 270153Z 00000KT 10SM CLR 07/03 A3019 RMK AO2 SLP222 T00670033 $

More Conditions Fewer Conditions

Pressure 30.19 in
Visibility 10.0 miles
Clouds Clear
Dew Point 38 °F
Humidity 79%
Rainfall 0.23 in
Snow Depth Not available.
UV 0 out of 12
Pollen .30 out of 12
Air Quality Not available.
Flu Activity Not available.
METAR KABY 270153Z 00000KT 10SM CLR 07/03 A3019 RMK AO2 SLP222 T00670033 $

More Conditions Fewer Conditions

10-Day Weather Forecast

Almanac

Astronomy

Nov. 26, 2014 Rise Set
Actual Time
Civil Twilight
Nautical Twilight
Astronomical Twilight
Moon
Length of Visible Light
Length of Day
Tomorrow will be .
, % of the Moon is Illuminated

Today's Extremes

State Highs State Lows

Community

WunderPhotos

Upload Photos

1,773,942 photos uploaded!

WunderBlogs® & News

Nearby

Air Quality

  Air Quality AQ Index Pollutant
Not available.

Snow Depth

Station Depth Elevation

Earthquake Activity

City Distance Mag. Time & Date
Minimum magnitude displayed is 2.5.

Coastal Water Temperatures

Place Temperature

Nearby Weather Stations